createdAt,value
2022-12-13T00:01:57.041Z,53.70
2022-12-13T00:05:00.755Z,52.55
2022-12-13T00:08:04.698Z,54.05
2022-12-13T00:11:11.821Z,53.83
2022-12-13T00:14:15.567Z,52.95
2022-12-13T00:17:21.215Z,56.10
2022-12-13T00:20:24.933Z,54.17
2022-12-13T00:23:30.587Z,45.85
2022-12-13T00:26:34.786Z,49.03
2022-12-13T00:29:38.529Z,55.03
2022-12-13T00:32:44.142Z,52.60
2022-12-13T00:35:47.801Z,54.58
2022-12-13T00:42:03.667Z,61.55
2022-12-13T00:45:08.970Z,58.08
2022-12-13T00:48:14.589Z,56.00
2022-12-13T00:51:18.415Z,55.78
2022-12-13T00:54:22.301Z,53.25
2022-12-13T00:57:26.081Z,61.85
2022-12-13T01:00:29.765Z,58.42
2022-12-13T01:03:35.521Z,58.03
2022-12-13T01:06:41.615Z,56.60
2022-12-13T01:09:45.453Z,68.65
2022-12-13T01:12:49.145Z,68.40
2022-12-13T01:15:52.888Z,58.65
2022-12-13T01:18:58.886Z,57.65
2022-12-13T01:22:05.028Z,62.90
2022-12-13T01:25:09.724Z,63.92
2022-12-13T01:28:13.431Z,64.43
2022-12-13T01:31:18.898Z,63.85
2022-12-13T01:34:26.960Z,60.38
2022-12-13T01:37:30.640Z,71.53
2022-12-13T01:40:38.582Z,72.63
2022-12-13T01:44:02.767Z,57.08
2022-12-13T01:50:16.836Z,62.83
2022-12-13T01:53:24.325Z,63.53
2022-12-13T01:56:32.307Z,63.53
2022-12-13T01:59:37.835Z,58.60
2022-12-13T02:02:41.827Z,58.85
2022-12-13T02:05:54.992Z,58.97
2022-12-13T02:08:59.316Z,57.08
2022-12-13T02:12:03.992Z,58.75
2022-12-13T02:15:12.221Z,63.38
2022-12-13T02:18:28.127Z,58.25
2022-12-13T02:21:42.322Z,67.63
2022-12-13T02:24:56.972Z,59.78
2022-12-13T02:28:30.689Z,58.03
2022-12-13T02:31:48.317Z,57.50
2022-12-13T02:34:58.085Z,51.40
2022-12-13T02:38:06.257Z,61.92
2022-12-13T02:41:18.502Z,57.53
2022-12-13T02:44:27.267Z,54.53
2022-12-13T02:47:34.770Z,65.05
2022-12-13T02:50:39.185Z,63.70
2022-12-13T02:53:43.718Z,55.45
2022-12-13T02:56:55.629Z,66.07
2022-12-13T03:00:03.211Z,58.85
2022-12-13T03:03:18.780Z,58.30
2022-12-13T03:06:34.796Z,62.53
2022-12-13T03:09:49.303Z,65.90
2022-12-13T03:13:09.620Z,55.40
2022-12-13T03:16:23.212Z,56.65
2022-12-13T03:19:29.418Z,59.50
2022-12-13T03:22:36.020Z,58.78
2022-12-13T03:25:39.742Z,54.28
2022-12-13T03:28:43.573Z,58.83
2022-12-13T03:31:47.895Z,60.72
2022-12-13T03:34:53.682Z,50.17
2022-12-13T03:38:05.304Z,51.35
2022-12-13T03:41:12.815Z,53.58
2022-12-13T03:44:16.962Z,64.25
2022-12-13T03:47:21.587Z,53.78
2022-12-13T03:50:27.678Z,50.65
2022-12-13T03:53:33.361Z,55.63
2022-12-13T03:56:38.011Z,57.55
2022-12-13T03:59:41.739Z,55.38
2022-12-13T04:02:45.680Z,58.55
2022-12-13T04:05:51.393Z,53.58
2022-12-13T04:08:55.145Z,66.40
2022-12-13T04:12:12.119Z,58.58
2022-12-13T04:15:16.156Z,57.25
2022-12-13T04:18:20.860Z,61.55
2022-12-13T04:21:26.836Z,54.55
2022-12-13T04:24:32.411Z,51.15
2022-12-13T04:27:37.446Z,56.05
2022-12-13T04:30:41.192Z,62.95
2022-12-13T04:33:44.941Z,56.92
2022-12-13T04:36:50.592Z,66.97
2022-12-13T04:39:54.288Z,63.63
2022-12-13T04:43:04.743Z,60.22
2022-12-13T04:46:08.633Z,52.30
2022-12-13T04:49:12.385Z,61.80
2022-12-13T04:52:22.152Z,60.40
2022-12-13T04:55:26.610Z,61.05
2022-12-13T04:58:30.332Z,58.20
2022-12-13T05:01:34.074Z,55.60
2022-12-13T05:04:37.848Z,64.45
2022-12-13T05:07:43.467Z,58.33
2022-12-13T05:10:47.202Z,62.97
2022-12-13T05:13:51.108Z,61.45
2022-12-13T05:16:55.034Z,59.95
2022-12-13T05:19:58.722Z,56.30
2022-12-13T05:23:04.466Z,55.08
2022-12-13T05:26:08.251Z,55.60
2022-12-13T05:29:12.073Z,62.83
2022-12-13T05:32:15.823Z,52.13
2022-12-13T05:35:23.034Z,55.17
2022-12-13T05:38:30.070Z,54.00
2022-12-13T05:41:35.732Z,83.03
2022-12-13T05:44:39.388Z,70.65
2022-12-13T05:47:43.309Z,58.53
2022-12-13T05:50:47.037Z,54.90
2022-12-13T05:53:53.518Z,56.33
2022-12-13T05:56:57.385Z,53.20
2022-12-13T06:00:01.120Z,62.67
2022-12-13T06:03:05.341Z,66.22
2022-12-13T06:06:11.377Z,58.47
2022-12-13T06:09:17.113Z,54.58
2022-12-13T06:12:31.821Z,51.38
2022-12-13T06:15:36.394Z,59.20
2022-12-13T06:18:51.389Z,57.10
2022-12-13T06:21:56.871Z,60.97
2022-12-13T06:25:02.991Z,54.25
2022-12-13T06:28:06.989Z,48.28
2022-12-13T06:31:10.848Z,59.60
2022-12-13T06:34:15.444Z,57.35
2022-12-13T06:37:19.344Z,62.25
2022-12-13T06:40:25.039Z,60.45
2022-12-13T06:43:28.909Z,61.13
2022-12-13T06:46:32.779Z,58.05
2022-12-13T06:49:36.629Z,59.10
2022-12-13T06:52:40.319Z,57.28
2022-12-13T06:55:46.373Z,57.05
2022-12-13T06:58:50.334Z,71.25
2022-12-13T07:01:54.096Z,50.47
2022-12-13T07:05:08.517Z,54.35
2022-12-13T07:08:12.289Z,53.67
2022-12-13T07:11:19.825Z,60.90
2022-12-13T07:14:24.252Z,59.53
2022-12-13T07:17:31.902Z,67.35
2022-12-13T07:20:40.654Z,63.67
2022-12-13T07:23:44.446Z,53.70
2022-12-13T07:26:50.424Z,52.40
2022-12-13T07:29:54.203Z,59.45
2022-12-13T07:32:57.956Z,63.25
2022-12-13T07:36:06.422Z,55.30
2022-12-13T07:39:10.188Z,61.17
2022-12-13T07:42:16.020Z,54.97
2022-12-13T07:45:20.169Z,56.45
2022-12-13T07:48:23.995Z,64.10
2022-12-13T07:51:28.087Z,57.55
2022-12-13T07:54:31.816Z,54.63
2022-12-13T07:57:37.509Z,58.67
2022-12-13T08:00:46.141Z,54.70
2022-12-13T08:03:50.706Z,59.50
2022-12-13T08:06:54.422Z,62.13
2022-12-13T08:09:58.166Z,58.63
2022-12-13T08:13:06.105Z,55.70
2022-12-13T08:16:27.973Z,57.35
2022-12-13T08:19:32.876Z,57.75
2022-12-13T08:22:36.793Z,57.70
2022-12-13T08:25:40.520Z,65.80
2022-12-13T08:28:46.143Z,56.40
2022-12-13T08:31:49.858Z,56.47
2022-12-13T08:34:56.193Z,56.55
2022-12-13T08:37:59.992Z,54.83
2022-12-13T08:41:04.906Z,57.42
2022-12-13T08:44:10.655Z,54.80
2022-12-13T08:47:22.992Z,65.55
2022-12-13T08:50:29.237Z,59.22
2022-12-13T08:53:41.111Z,55.60
2022-12-13T08:56:45.311Z,52.65
2022-12-13T08:59:50.989Z,55.90
2022-12-13T09:02:58.738Z,64.15
2022-12-13T09:06:09.905Z,58.50
2022-12-13T09:09:13.684Z,55.38
2022-12-13T09:12:29.483Z,50.70
2022-12-13T09:15:45.886Z,47.10
2022-12-13T09:18:55.128Z,58.78
2022-12-13T09:22:02.550Z,49.55
2022-12-13T09:25:08.727Z,54.42
2022-12-13T09:28:19.655Z,58.22
2022-12-13T09:31:25.302Z,55.00
2022-12-13T09:34:29.534Z,58.42
2022-12-13T09:37:33.918Z,55.22
2022-12-13T09:40:40.127Z,57.00
2022-12-13T09:43:46.124Z,63.65
2022-12-13T09:46:53.957Z,61.00
2022-12-13T09:50:14.651Z,60.83
2022-12-13T09:53:21.229Z,54.20
2022-12-13T09:56:26.337Z,60.78
2022-12-13T09:59:32.913Z,56.15
2022-12-13T10:02:44.688Z,67.43
2022-12-13T10:05:58.235Z,64.22
2022-12-13T10:09:02.580Z,64.05
2022-12-13T10:12:06.691Z,72.85
2022-12-13T10:15:14.122Z,65.30
2022-12-13T10:18:34.770Z,64.82
2022-12-13T10:21:42.673Z,74.45
2022-12-13T10:24:52.396Z,66.88
2022-12-13T10:27:56.125Z,64.78
2022-12-13T10:31:00.619Z,56.60
2022-12-13T10:34:06.385Z,58.60
2022-12-13T10:37:27.737Z,58.97
2022-12-13T10:40:35.624Z,59.05
2022-12-13T10:43:41.745Z,63.45
2022-12-13T10:46:51.912Z,62.45
2022-12-13T10:50:00.721Z,64.68
2022-12-13T10:53:07.746Z,55.95
2022-12-13T10:56:13.115Z,60.38
2022-12-13T10:59:29.112Z,61.90
2022-12-13T11:02:36.432Z,60.03
2022-12-13T11:05:43.616Z,56.15
2022-12-13T11:08:47.390Z,58.70
2022-12-13T11:11:58.271Z,52.83
2022-12-13T11:15:05.964Z,48.90
2022-12-13T11:18:22.659Z,57.65
2022-12-13T11:21:31.847Z,58.50
2022-12-13T11:24:38.884Z,50.28
2022-12-13T11:28:00.246Z,62.70
2022-12-13T11:31:14.845Z,58.67
2022-12-13T11:34:27.929Z,55.22
2022-12-13T11:37:41.805Z,53.50
2022-12-13T11:43:56.893Z,44.50
2022-12-13T11:47:02.250Z,61.30
2022-12-13T11:50:20.476Z,56.88
2022-12-13T11:53:47.469Z,51.65
2022-12-13T11:56:54.898Z,52.00
2022-12-13T12:00:13.051Z,50.63
2022-12-13T12:06:30.041Z,50.88
2022-12-13T12:09:37.780Z,56.22
2022-12-13T12:12:45.169Z,50.47
2022-12-13T12:15:55.451Z,49.22
2022-12-13T12:19:01.239Z,45.40
2022-12-13T12:22:22.827Z,49.90
2022-12-13T12:25:42.423Z,50.45
2022-12-13T12:29:14.178Z,37.95
2022-12-13T12:32:32.925Z,55.90
2022-12-13T12:35:52.318Z,50.33
2022-12-13T12:39:28.788Z,47.50
2022-12-13T12:43:17.984Z,51.30
2022-12-13T12:47:08.782Z,53.28
2022-12-13T12:50:15.290Z,48.20
2022-12-13T12:53:41.167Z,45.33
2022-12-13T12:56:54.942Z,50.78
2022-12-13T13:00:06.012Z,51.83
2022-12-13T13:03:22.677Z,45.40
2022-12-13T13:06:31.659Z,50.53
2022-12-13T13:09:36.146Z,49.53
2022-12-13T13:12:43.483Z,59.33
2022-12-13T13:15:59.376Z,52.15
2022-12-13T13:19:04.190Z,45.53
2022-12-13T13:22:32.083Z,43.42
2022-12-13T13:25:53.985Z,47.63
2022-12-13T13:29:32.695Z,44.97
2022-12-13T13:32:41.323Z,47.55
2022-12-13T13:35:49.711Z,46.72
2022-12-13T13:39:01.019Z,45.58
2022-12-13T13:42:20.372Z,45.70
2022-12-13T13:45:26.523Z,47.10
2022-12-13T13:48:52.027Z,52.65
2022-12-13T13:52:27.662Z,48.38
2022-12-13T13:55:58.605Z,44.90
2022-12-13T13:59:38.260Z,44.00
2022-12-13T14:03:35.300Z,43.33
2022-12-13T14:07:12.150Z,48.28
2022-12-13T14:10:41.162Z,48.35
2022-12-13T14:14:22.305Z,46.72
2022-12-13T14:17:55.673Z,48.28
2022-12-13T14:21:10.192Z,46.05
2022-12-13T14:24:22.349Z,52.78
2022-12-13T14:27:44.458Z,46.78
2022-12-13T14:30:57.586Z,54.05
2022-12-13T14:34:03.167Z,51.95
2022-12-13T14:37:20.159Z,48.38
2022-12-13T14:40:30.915Z,43.47
2022-12-13T14:43:37.280Z,51.20
2022-12-13T14:46:50.638Z,52.13
2022-12-13T14:49:57.036Z,45.15
2022-12-13T14:53:04.095Z,49.72
2022-12-13T14:56:10.492Z,44.70
2022-12-13T15:02:37.891Z,51.53
2022-12-13T15:05:50.305Z,48.00
2022-12-13T15:08:55.427Z,46.00
2022-12-13T15:12:23.571Z,54.17
2022-12-13T15:15:32.608Z,53.83
2022-12-13T15:18:36.337Z,44.83
2022-12-13T15:21:42.968Z,44.38
2022-12-13T15:24:57.363Z,43.25
2022-12-13T15:28:09.305Z,41.97
2022-12-13T15:31:16.050Z,44.50
2022-12-13T15:34:28.482Z,49.35
2022-12-13T15:37:35.325Z,42.17
2022-12-13T15:40:39.181Z,47.35
2022-12-13T15:43:45.933Z,49.53
2022-12-13T15:46:53.892Z,45.25
2022-12-13T15:49:59.498Z,43.92
2022-12-13T15:53:07.869Z,48.85
2022-12-13T15:56:31.060Z,47.85
2022-12-13T15:59:37.022Z,46.17
2022-12-13T16:02:53.209Z,42.95
2022-12-13T16:05:58.603Z,42.35
2022-12-13T16:09:07.222Z,47.40
2022-12-13T16:12:24.341Z,47.47
2022-12-13T16:15:30.295Z,43.17
2022-12-13T16:18:45.122Z,37.95
2022-12-13T16:21:49.106Z,42.20
2022-12-13T16:24:55.769Z,45.40
2022-12-13T16:27:59.440Z,43.58
2022-12-13T16:31:16.477Z,49.13
2022-12-13T16:34:26.306Z,42.90
2022-12-13T16:37:30.226Z,42.33
2022-12-13T16:40:34.110Z,40.95
2022-12-13T16:43:42.026Z,46.20
2022-12-13T16:47:13.097Z,43.30
2022-12-13T16:50:16.682Z,38.20
2022-12-13T16:53:20.722Z,45.35
2022-12-13T16:56:24.464Z,44.95
2022-12-13T16:59:28.882Z,43.33
2022-12-13T17:02:32.696Z,42.45
2022-12-13T17:05:38.890Z,46.95
2022-12-13T17:08:42.753Z,41.42
2022-12-13T17:11:47.034Z,44.85
2022-12-13T17:14:51.331Z,44.95
2022-12-13T17:17:55.489Z,44.53
2022-12-13T17:21:07.170Z,53.72
2022-12-13T17:24:10.959Z,45.38
2022-12-13T17:27:15.164Z,52.45
2022-12-13T17:30:20.011Z,52.25
2022-12-13T17:33:24.029Z,49.00
2022-12-13T17:36:30.724Z,45.47
2022-12-13T17:39:34.509Z,49.95
2022-12-13T17:42:38.466Z,50.75
2022-12-13T17:45:43.152Z,50.75
2022-12-13T17:48:47.434Z,43.53
2022-12-13T17:51:53.792Z,52.58
2022-12-13T17:54:59.473Z,42.90
2022-12-13T17:58:04.776Z,53.25
2022-12-13T18:01:13.752Z,53.55
2022-12-13T18:04:17.629Z,48.15
2022-12-13T18:07:23.475Z,49.67
2022-12-13T18:10:29.962Z,56.42
2022-12-13T18:13:34.387Z,46.03
2022-12-13T18:16:39.273Z,47.95
2022-12-13T18:19:43.186Z,47.70
2022-12-13T18:22:51.557Z,47.88
2022-12-13T18:26:00.932Z,47.67
2022-12-13T18:29:05.994Z,55.35
2022-12-13T18:32:09.761Z,57.47
2022-12-13T18:35:13.558Z,57.80
2022-12-13T18:38:19.227Z,49.55
2022-12-13T18:41:27.437Z,56.17
2022-12-13T18:44:31.154Z,51.40
2022-12-13T18:47:34.974Z,59.90
2022-12-13T18:50:38.837Z,46.10
2022-12-13T18:53:44.495Z,49.83
2022-12-13T18:56:48.245Z,49.78
2022-12-13T18:59:54.427Z,51.05
2022-12-13T19:02:58.627Z,51.50
2022-12-13T19:06:02.920Z,53.30
2022-12-13T19:09:08.760Z,47.85
2022-12-13T19:12:12.449Z,45.40
2022-12-13T19:19:08.970Z,46.42
2022-12-13T19:22:12.721Z,44.47
2022-12-13T19:25:19.918Z,39.70
2022-12-13T19:28:23.654Z,46.13
2022-12-13T19:31:31.582Z,43.35
2022-12-13T19:34:36.128Z,43.30
2022-12-13T19:40:46.058Z,48.60
2022-12-13T19:43:53.031Z,46.00
2022-12-13T19:46:58.552Z,51.38
2022-12-13T19:50:02.332Z,52.15
2022-12-13T19:53:06.404Z,54.55
2022-12-13T19:56:14.595Z,54.22
2022-12-13T19:59:18.387Z,55.88
2022-12-13T20:02:22.139Z,50.45
2022-12-13T20:05:25.869Z,48.55
2022-12-13T20:08:30.058Z,54.95
2022-12-13T20:11:35.700Z,43.35
2022-12-13T20:14:39.503Z,51.42
2022-12-13T20:17:43.250Z,54.03
2022-12-13T20:21:10.629Z,58.15
2022-12-13T20:24:11.363Z,48.45
2022-12-13T20:27:18.088Z,54.42
2022-12-13T20:30:21.833Z,45.30
2022-12-13T20:39:34.530Z,62.78
2022-12-13T20:42:40.309Z,56.03
2022-12-13T20:45:44.727Z,53.42
2022-12-13T20:48:49.657Z,57.33
2022-12-13T20:51:53.416Z,51.03
2022-12-13T20:54:57.083Z,53.42
2022-12-13T20:58:02.787Z,44.63
2022-12-13T21:01:07.662Z,50.08
2022-12-13T21:04:12.398Z,47.25
2022-12-13T21:07:36.686Z,52.78
2022-12-13T21:10:41.711Z,47.85
2022-12-13T21:13:48.291Z,54.40
2022-12-13T21:16:55.728Z,50.22
2022-12-13T21:19:59.458Z,55.17
2022-12-13T21:23:03.238Z,46.90
2022-12-13T21:26:07.700Z,49.15
2022-12-13T21:29:15.598Z,46.65
2022-12-13T21:32:19.433Z,54.88
2022-12-13T21:35:23.199Z,52.05
2022-12-13T21:38:26.916Z,47.20
2022-12-13T21:41:30.986Z,46.72
2022-12-13T21:44:36.587Z,53.75
2022-12-13T21:47:40.293Z,44.35
2022-12-13T21:50:50.361Z,46.17
2022-12-13T21:53:54.675Z,52.10
2022-12-13T21:57:11.582Z,41.50
2022-12-13T22:00:17.985Z,45.10
2022-12-13T22:03:21.684Z,52.42
2022-12-13T22:09:28.911Z,44.65
2022-12-13T22:12:35.122Z,47.80
2022-12-13T22:15:40.756Z,48.38
2022-12-13T22:18:44.968Z,46.78
2022-12-13T22:21:48.992Z,47.97
2022-12-13T22:24:53.691Z,42.10
2022-12-13T22:27:58.774Z,42.85
2022-12-13T22:31:04.542Z,54.30
2022-12-13T22:34:08.635Z,49.00
2022-12-13T22:37:12.410Z,55.97
2022-12-13T22:40:16.199Z,50.15
2022-12-13T22:43:20.800Z,49.65
2022-12-13T22:46:26.603Z,56.85
2022-12-13T22:49:30.368Z,58.13
2022-12-13T22:52:34.407Z,59.40
2022-12-13T22:55:39.189Z,46.08
2022-12-13T22:58:43.480Z,41.10
2022-12-13T23:01:49.378Z,44.30
2022-12-13T23:04:53.500Z,43.13
2022-12-13T23:07:57.149Z,40.35
2022-12-13T23:14:19.530Z,47.17
2022-12-13T23:17:25.152Z,43.35
2022-12-13T23:20:28.953Z,41.25
2022-12-13T23:23:32.941Z,43.15
2022-12-13T23:26:37.109Z,44.20
2022-12-13T23:29:40.870Z,42.08
2022-12-13T23:32:46.702Z,40.80
2022-12-13T23:35:59.298Z,35.90
2022-12-13T23:39:04.959Z,44.90
2022-12-13T23:42:08.982Z,44.53
2022-12-13T23:45:13.083Z,42.28
2022-12-13T23:48:23.719Z,40.20
2022-12-13T23:51:30.638Z,49.33
2022-12-13T23:54:34.402Z,42.15
